Time;durP1;ratioP1;P1;durP2;ratioP2;P2;SDS_P1;SDS_P2;PMS_P1;PMS_P2;Temp;Humidity;BMP_temperature;BMP_pressure;BME280_temperature;BME280_humidity;BME280_pressure;Samples;Min_cycle;Max_cycle;Signal;HPM_P1;HPM_P2
2021/10/11 00:00:58;;;;;;;18.10;14.23;;;;;;;;;;5029459;28;20685;-60
2021/10/11 00:03:24;;;;;;;19.17;15.40;;;;;;;;;;5029038;28;20212;-60
2021/10/11 00:05:51;;;;;;;16.87;13.67;;;;;;;;;;5029128;28;20345;-63
2021/10/11 00:08:19;;;;;;;16.77;14.03;;;;;;;;;;5029512;28;20228;-61
2021/10/11 00:10:51;;;;;;;15.70;12.73;;;;;;;;;;5028666;28;20203;-61
2021/10/11 00:13:17;;;;;;;14.93;12.97;;;;;;;;;;5029028;28;20326;-63
2021/10/11 00:15:43;;;;;;;18.10;13.77;;;;;;;;;;5027913;28;20673;-60
2021/10/11 00:18:09;;;;;;;15.83;13.27;;;;;;;;;;5029084;28;20223;-61
2021/10/11 00:20:36;;;;;;;17.87;15.53;;;;;;;;;;5029246;28;20212;-61
2021/10/11 00:23:02;;;;;;;16.33;14.63;;;;;;;;;;5028916;28;20211;-63
2021/10/11 00:25:28;;;;;;;16.47;13.40;;;;;;;;;;5029188;28;20547;-61
2021/10/11 00:27:57;;;;;;;16.87;14.50;;;;;;;;;;5045809;28;20251;-63
2021/10/11 00:30:23;;;;;;;21.13;15.20;;;;;;;;;;5029090;28;20189;-60
2021/10/11 00:32:53;;;;;;;20.63;15.80;;;;;;;;;;5047752;28;20190;-61
2021/10/11 00:35:19;;;;;;;19.53;16.13;;;;;;;;;;5032926;28;20181;-61
2021/10/11 00:37:45;;;;;;;18.17;14.77;;;;;;;;;;5032550;28;20199;-61
2021/10/11 00:40:14;;;;;;;18.63;15.13;;;;;;;;;;5032959;28;20644;-63
2021/10/11 00:42:40;;;;;;;19.43;15.30;;;;;;;;;;5049325;28;20181;-62
2021/10/11 00:45:09;;;;;;;18.37;16.20;;;;;;;;;;5050765;28;20176;-62
2021/10/11 00:47:36;;;;;;;18.77;15.47;;;;;;;;;;5032606;28;20572;-63
2021/10/11 00:50:02;;;;;;;21.03;15.57;;;;;;;;;;5032890;28;20196;-63
2021/10/11 00:52:28;;;;;;;18.43;15.37;;;;;;;;;;5050201;28;20200;-63
2021/10/11 00:54:54;;;;;;;18.93;15.43;;;;;;;;;;5048917;28;20252;-63
2021/10/11 00:57:21;;;;;;;19.77;15.33;;;;;;;;;;5047961;28;20177;-63
2021/10/11 00:59:47;;;;;;;20.80;15.50;;;;;;;;;;5048918;28;20216;-62
2021/10/11 01:02:13;;;;;;;18.40;15.13;;;;;;;;;;5048780;28;20643;-63
2021/10/11 01:04:42;;;;;;;17.50;14.37;;;;;;;;;;5032393;28;20213;-63
2021/10/11 01:07:08;;;;;;;18.67;15.17;;;;;;;;;;5032263;28;20174;-62
2021/10/11 01:09:34;;;;;;;20.50;15.10;;;;;;;;;;5032066;28;20217;-63
2021/10/11 01:12:00;;;;;;;18.70;15.47;;;;;;;;;;5030971;28;20584;-63
2021/10/11 01:14:28;;;;;;;20.30;16.60;;;;;;;;;;5049953;28;20512;-62
2021/10/11 01:16:57;;;;;;;19.13;14.50;;;;;;;;;;5050188;28;20180;-62
2021/10/11 01:19:24;;;;;;;20.13;15.53;;;;;;;;;;5031879;28;20192;-63
2021/10/11 01:21:50;;;;;;;19.87;15.40;;;;;;;;;;5031889;28;20647;-63
2021/10/11 01:24:19;;;;;;;20.63;16.80;;;;;;;;;;5049802;28;20235;-62
2021/10/11 01:26:46;;;;;;;18.57;15.57;;;;;;;;;;5047494;28;20204;-63
2021/10/11 01:29:14;;;;;;;18.30;14.53;;;;;;;;;;5048469;28;20192;-62
2021/10/11 01:31:42;;;;;;;19.57;16.53;;;;;;;;;;5012032;28;20571;-62
2021/10/11 01:34:08;;;;;;;20.53;16.17;;;;;;;;;;5027868;28;20643;-63
2021/10/11 01:36:34;;;;;;;20.00;16.27;;;;;;;;;;5049910;28;20270;-62
2021/10/11 01:39:02;;;;;;;19.07;16.13;;;;;;;;;;5049844;28;20655;-63
2021/10/11 01:41:28;;;;;;;21.17;16.27;;;;;;;;;;5047287;28;20169;-63
2021/10/11 01:44:04;;;;;;;21.07;16.97;;;;;;;;;;5047532;28;20232;-62
2021/10/11 01:46:33;;;;;;;21.10;16.70;;;;;;;;;;5031178;28;20173;-62
2021/10/11 01:49:00;;;;;;;20.93;17.00;;;;;;;;;;5031527;28;20537;-62
2021/10/11 01:51:26;;;;;;;21.07;16.67;;;;;;;;;;5030899;28;20197;-62
2021/10/11 01:53:55;;;;;;;20.43;17.73;;;;;;;;;;5048218;28;20675;-63
2021/10/11 01:56:21;;;;;;;21.40;17.13;;;;;;;;;;5047668;28;20283;-62
2021/10/11 01:58:47;;;;;;;21.40;16.63;;;;;;;;;;5030879;28;20354;-62
2021/10/11 02:01:13;;;;;;;21.47;18.17;;;;;;;;;;5050950;28;20181;-59
2021/10/11 02:03:39;;;;;;;20.37;17.37;;;;;;;;;;5049405;28;20212;-62
2021/10/11 02:06:05;;;;;;;22.33;17.47;;;;;;;;;;5047515;28;20514;-62
2021/10/11 02:08:31;;;;;;;22.07;16.77;;;;;;;;;;5048005;28;20180;-62
2021/10/11 02:10:57;;;;;;;19.47;16.40;;;;;;;;;;5048203;28;20260;-60
2021/10/11 02:13:24;;;;;;;20.20;17.37;;;;;;;;;;5030732;28;20189;-62
2021/10/11 02:15:56;;;;;;;19.47;16.70;;;;;;;;;;5030779;28;20185;-62
2021/10/11 02:18:24;;;;;;;19.90;16.73;;;;;;;;;;5030826;28;20239;-63
2021/10/11 02:20:53;;;;;;;20.10;17.93;;;;;;;;;;5048939;28;21035;-63
2021/10/11 02:23:19;;;;;;;19.57;16.33;;;;;;;;;;5030811;28;20232;-63
2021/10/11 02:25:46;;;;;;;19.23;17.00;;;;;;;;;;5048308;28;20165;-63
2021/10/11 02:28:12;;;;;;;22.10;17.77;;;;;;;;;;5030504;28;20569;-63
2021/10/11 02:30:40;;;;;;;19.93;17.10;;;;;;;;;;5048837;28;20177;-63
2021/10/11 02:33:06;;;;;;;19.47;16.93;;;;;;;;;;5030540;28;20224;-62
2021/10/11 02:35:36;;;;;;;21.83;18.40;;;;;;;;;;5046820;28;20634;-63
2021/10/11 02:38:02;;;;;;;22.07;17.67;;;;;;;;;;5048339;28;20264;-63
2021/10/11 02:40:36;;;;;;;19.10;17.00;;;;;;;;;;5047316;28;20208;-64
2021/10/11 02:43:05;;;;;;;21.80;17.73;;;;;;;;;;5045820;28;20201;-64
2021/10/11 02:45:34;;;;;;;22.07;18.20;;;;;;;;;;5030340;28;20169;-61
2021/10/11 02:48:03;;;;;;;23.33;18.17;;;;;;;;;;5049016;28;20730;-63
2021/10/11 02:50:29;;;;;;;23.07;18.57;;;;;;;;;;5048464;28;20181;-63
2021/10/11 02:52:55;;;;;;;24.10;18.33;;;;;;;;;;5029746;28;20232;-63
2021/10/11 02:55:22;;;;;;;22.67;18.40;;;;;;;;;;5047688;28;20225;-63
2021/10/11 02:57:48;;;;;;;20.73;17.27;;;;;;;;;;5045786;28;20601;-62
2021/10/11 03:00:20;;;;;;;21.57;17.77;;;;;;;;;;5048599;28;20173;-62
2021/10/11 03:02:50;;;;;;;21.40;17.77;;;;;;;;;;5047785;28;20596;-62
2021/10/11 03:05:16;;;;;;;20.97;18.43;;;;;;;;;;5046395;28;20208;-63
2021/10/11 03:07:42;;;;;;;23.23;18.63;;;;;;;;;;5046403;28;20185;-62
2021/10/11 03:10:09;;;;;;;23.53;19.20;;;;;;;;;;5030272;28;20190;-63
2021/10/11 03:12:41;;;;;;;23.30;18.43;;;;;;;;;;5028990;28;20185;-62
2021/10/11 03:15:11;;;;;;;22.33;18.87;;;;;;;;;;5029838;28;20173;-62
2021/10/11 03:17:37;;;;;;;24.47;19.23;;;;;;;;;;5029802;28;20564;-62
2021/10/11 03:20:07;;;;;;;20.23;17.63;;;;;;;;;;5030200;28;20191;-62
2021/10/11 03:22:33;;;;;;;23.23;19.17;;;;;;;;;;5028785;28;20232;-61
2021/10/11 03:25:12;;;;;;;24.47;19.77;;;;;;;;;;5048131;28;20201;-62
2021/10/11 03:27:38;;;;;;;25.07;18.83;;;;;;;;;;5045202;28;20250;-62
2021/10/11 03:30:11;;;;;;;23.37;18.53;;;;;;;;;;5047824;28;20184;-62
2021/10/11 03:32:37;;;;;;;26.33;19.13;;;;;;;;;;5029310;28;20191;-62
2021/10/11 03:35:03;;;;;;;24.97;19.57;;;;;;;;;;5030383;28;20184;-62
2021/10/11 03:37:34;;;;;;;22.37;18.27;;;;;;;;;;5029476;28;20177;-62
2021/10/11 03:40:00;;;;;;;20.80;18.47;;;;;;;;;;5030030;28;20184;-62
2021/10/11 03:42:27;;;;;;;23.77;19.07;;;;;;;;;;5046258;28;20173;-62
2021/10/11 03:44:53;;;;;;;25.17;19.00;;;;;;;;;;5047737;28;20207;-62
2021/10/11 03:47:19;;;;;;;25.90;18.93;;;;;;;;;;5029278;28;20191;-62
2021/10/11 03:49:45;;;;;;;23.83;18.43;;;;;;;;;;5046728;28;20220;-62
2021/10/11 03:52:11;;;;;;;27.97;20.47;;;;;;;;;;5047704;28;20544;-62
2021/10/11 03:54:38;;;;;;;26.63;19.50;;;;;;;;;;5028993;28;20282;-62
2021/10/11 03:57:04;;;;;;;24.60;19.53;;;;;;;;;;5046520;28;20177;-62
2021/10/11 03:59:30;;;;;;;23.90;18.60;;;;;;;;;;5030076;28;20193;-62
2021/10/11 04:01:59;;;;;;;22.80;20.20;;;;;;;;;;5040030;28;20440;-62
2021/10/11 04:04:25;;;;;;;23.13;19.07;;;;;;;;;;5027825;28;20603;-62
2021/10/11 04:06:54;;;;;;;22.27;18.03;;;;;;;;;;5045980;28;20188;-62
2021/10/11 04:09:26;;;;;;;24.70;19.30;;;;;;;;;;5049512;28;20185;-61
2021/10/11 04:11:53;;;;;;;26.07;19.97;;;;;;;;;;5032243;28;20200;-61
2021/10/11 04:14:20;;;;;;;24.90;19.30;;;;;;;;;;5033434;28;20197;-61
2021/10/11 04:16:46;;;;;;;23.70;19.20;;;;;;;;;;5033139;28;20181;-62
2021/10/11 04:19:12;;;;;;;23.37;19.27;;;;;;;;;;5033340;28;20193;-62
2021/10/11 04:21:42;;;;;;;25.10;19.70;;;;;;;;;;5033030;28;20177;-62
2021/10/11 04:24:09;;;;;;;23.33;19.77;;;;;;;;;;5051506;28;20201;-62
2021/10/11 04:26:35;;;;;;;26.57;19.83;;;;;;;;;;5031955;28;20183;-62
2021/10/11 04:29:05;;;;;;;24.33;19.07;;;;;;;;;;5032898;28;20177;-62
2021/10/11 04:31:37;;;;;;;27.70;20.30;;;;;;;;;;5033243;28;20184;-61
2021/10/11 04:34:03;;;;;;;23.37;18.93;;;;;;;;;;5032988;28;20274;-62
2021/10/11 04:36:29;;;;;;;23.60;19.93;;;;;;;;;;5051182;28;20686;-62
2021/10/11 04:38:56;;;;;;;24.73;19.27;;;;;;;;;;5051223;28;20516;-62
2021/10/11 04:41:22;;;;;;;25.37;19.90;;;;;;;;;;5049456;28;20310;-61
2021/10/11 04:43:49;;;;;;;26.73;20.53;;;;;;;;;;5050188;28;20208;-65
2021/10/11 04:46:16;;;;;;;22.53;19.37;;;;;;;;;;5033368;28;20169;-62
2021/10/11 04:48:42;;;;;;;24.77;19.00;;;;;;;;;;5033461;28;20597;-62
2021/10/11 04:51:09;;;;;;;23.00;19.07;;;;;;;;;;5033137;28;20227;-62
2021/10/11 04:53:37;;;;;;;21.87;18.37;;;;;;;;;;5047361;28;20605;-61
2021/10/11 04:56:04;;;;;;;22.87;18.27;;;;;;;;;;5012544;28;20173;-62
2021/10/11 04:58:30;;;;;;;21.70;16.83;;;;;;;;;;5030609;28;20217;-61
2021/10/11 05:00:56;;;;;;;20.47;16.80;;;;;;;;;;5031523;28;20212;-62
2021/10/11 05:03:26;;;;;;;21.17;15.90;;;;;;;;;;5013456;28;20217;-62
2021/10/11 05:05:52;;;;;;;21.37;16.63;;;;;;;;;;5013523;28;20927;-62
2021/10/11 05:08:18;;;;;;;20.70;15.90;;;;;;;;;;5013424;28;20196;-62
2021/10/11 05:10:47;;;;;;;17.93;14.83;;;;;;;;;;5031853;28;20227;-62
2021/10/11 05:13:14;;;;;;;19.50;15.30;;;;;;;;;;5024217;28;20339;-62
2021/10/11 05:15:40;;;;;;;17.17;14.80;;;;;;;;;;5013480;28;20654;-62
2021/10/11 05:18:06;;;;;;;16.70;13.77;;;;;;;;;;5025520;28;20652;-62
2021/10/11 05:20:44;;;;;;;17.67;13.97;;;;;;;;;;5032941;28;20654;-62
2021/10/11 05:23:10;;;;;;;16.83;13.30;;;;;;;;;;5022477;28;20216;-62
2021/10/11 05:25:37;;;;;;;17.77;13.10;;;;;;;;;;5013655;28;20174;-62
2021/10/11 05:28:03;;;;;;;15.20;12.27;;;;;;;;;;5011610;28;20198;-61
2021/10/11 05:30:29;;;;;;;17.17;12.37;;;;;;;;;;5037653;28;20186;-62
2021/10/11 05:32:55;;;;;;;15.23;11.90;;;;;;;;;;5035923;28;20177;-63
2021/10/11 05:35:21;;;;;;;15.80;11.87;;;;;;;;;;5050850;28;20253;-62
2021/10/11 05:37:57;;;;;;;13.00;11.30;;;;;;;;;;5026614;28;20209;-63
2021/10/11 05:40:23;;;;;;;16.60;11.17;;;;;;;;;;5013320;28;20196;-62
2021/10/11 05:42:50;;;;;;;14.30;10.13;;;;;;;;;;5029239;28;20182;-62
2021/10/11 05:45:16;;;;;;;14.57;11.37;;;;;;;;;;5013119;28;20166;-62
2021/10/11 05:47:44;;;;;;;14.73;9.60;;;;;;;;;;5030314;28;20181;-62
2021/10/11 05:50:10;;;;;;;14.13;9.80;;;;;;;;;;5013060;28;20176;-62
2021/10/11 05:52:37;;;;;;;13.47;9.57;;;;;;;;;;5012142;28;20316;-62
2021/10/11 05:55:08;;;;;;;12.57;9.33;;;;;;;;;;5012686;28;20267;-63
2021/10/11 05:57:34;;;;;;;14.53;9.93;;;;;;;;;;5012321;28;20199;-62
2021/10/11 06:00:02;;;;;;;11.93;8.57;;;;;;;;;;5051102;28;20212;-62
2021/10/11 06:02:29;;;;;;;12.83;9.10;;;;;;;;;;5026674;28;20292;-62
2021/10/11 06:05:01;;;;;;;10.57;9.30;;;;;;;;;;5030345;28;20190;-62
2021/10/11 06:07:28;;;;;;;13.27;9.20;;;;;;;;;;5011662;28;20545;-62
2021/10/11 06:09:57;;;;;;;14.20;8.77;;;;;;;;;;5012797;28;20227;-63
2021/10/11 06:12:24;;;;;;;12.43;7.80;;;;;;;;;;5028772;28;21061;-63
2021/10/11 06:14:52;;;;;;;10.40;8.37;;;;;;;;;;5012611;28;20551;-62
2021/10/11 06:17:19;;;;;;;9.77;6.93;;;;;;;;;;5011995;28;20265;-62
2021/10/11 06:19:45;;;;;;;11.30;7.97;;;;;;;;;;5030345;28;20174;-63
2021/10/11 06:22:11;;;;;;;9.47;7.00;;;;;;;;;;5030244;28;20228;-62
2021/10/11 06:24:41;;;;;;;9.93;7.50;;;;;;;;;;5011945;28;20667;-63
2021/10/11 06:27:07;;;;;;;11.33;6.73;;;;;;;;;;5010617;28;20182;-62
2021/10/11 06:29:33;;;;;;;10.17;6.90;;;;;;;;;;5029203;28;20182;-62
2021/10/11 06:31:59;;;;;;;11.10;6.90;;;;;;;;;;5011953;28;20314;-63
2021/10/11 06:34:26;;;;;;;9.83;6.67;;;;;;;;;;5012050;28;20194;-62
2021/10/11 06:36:55;;;;;;;9.80;6.83;;;;;;;;;;5030039;28;20673;-62
2021/10/11 06:39:21;;;;;;;8.97;6.20;;;;;;;;;;4995463;28;20240;-62
2021/10/11 06:41:48;;;;;;;8.70;5.90;;;;;;;;;;5028705;28;20180;-62
2021/10/11 06:44:14;;;;;;;8.63;6.13;;;;;;;;;;5013397;28;20225;-62
2021/10/11 06:46:45;;;;;;;9.53;6.13;;;;;;;;;;5014574;28;20177;-64
2021/10/11 06:49:15;;;;;;;10.13;5.77;;;;;;;;;;5014761;28;20201;-62
2021/10/11 06:51:41;;;;;;;7.17;5.83;;;;;;;;;;5031772;28;20201;-62
2021/10/11 06:54:10;;;;;;;7.43;6.20;;;;;;;;;;5012882;28;20526;-63
2021/10/11 06:56:39;;;;;;;7.40;5.30;;;;;;;;;;5011465;28;20180;-62
2021/10/11 06:59:05;;;;;;;11.80;6.30;;;;;;;;;;5013067;28;20190;-63
2021/10/11 07:01:31;;;;;;;7.40;6.00;;;;;;;;;;4995901;28;20174;-62
2021/10/11 07:03:57;;;;;;;8.63;5.23;;;;;;;;;;5011045;28;20201;-63
2021/10/11 07:06:25;;;;;;;9.80;5.63;;;;;;;;;;5029203;28;20165;-62
2021/10/11 07:08:54;;;;;;;9.47;5.43;;;;;;;;;;5028899;28;20197;-62
2021/10/11 07:11:20;;;;;;;6.57;5.27;;;;;;;;;;5027767;28;20239;-62
2021/10/11 07:13:47;;;;;;;8.20;5.17;;;;;;;;;;5029558;28;20541;-62
2021/10/11 07:16:13;;;;;;;8.57;5.93;;;;;;;;;;5011074;28;20173;-62
2021/10/11 07:18:39;;;;;;;7.23;5.57;;;;;;;;;;5011719;28;20683;-62
2021/10/11 07:21:06;;;;;;;8.17;4.80;;;;;;;;;;5012183;28;20833;-62
2021/10/11 07:23:33;;;;;;;7.53;5.50;;;;;;;;;;5029270;28;20284;-62
2021/10/11 07:26:11;;;;;;;7.33;4.67;;;;;;;;;;5009318;28;20208;-62
2021/10/11 07:28:38;;;;;;;9.20;4.33;;;;;;;;;;5028702;28;20285;-62
2021/10/11 07:31:07;;;;;;;7.53;4.47;;;;;;;;;;5007170;28;20652;-62
2021/10/11 07:33:34;;;;;;;6.63;4.37;;;;;;;;;;5020242;28;20194;-62
2021/10/11 07:36:00;;;;;;;11.00;4.67;;;;;;;;;;5010687;28;20651;-62
2021/10/11 07:38:26;;;;;;;6.43;3.80;;;;;;;;;;5011075;28;20192;-62
2021/10/11 07:40:52;;;;;;;7.27;4.07;;;;;;;;;;5009874;28;20213;-62
2021/10/11 07:43:19;;;;;;;7.57;4.30;;;;;;;;;;5009630;28;20649;-62
2021/10/11 07:45:45;;;;;;;10.43;4.27;;;;;;;;;;4994168;28;20209;-62
2021/10/11 07:48:12;;;;;;;8.77;4.20;;;;;;;;;;5010981;28;20178;-61
2021/10/11 07:50:38;;;;;;;7.33;3.83;;;;;;;;;;5010852;28;20174;-62
2021/10/11 07:53:04;;;;;;;6.60;3.17;;;;;;;;;;5010262;28;20204;-62
2021/10/11 07:55:30;;;;;;;8.97;3.60;;;;;;;;;;5008315;28;20224;-62
2021/10/11 07:57:56;;;;;;;7.57;3.67;;;;;;;;;;5009152;28;20197;-62
2021/10/11 08:00:24;;;;;;;7.37;3.53;;;;;;;;;;5010280;28;20220;-62
2021/10/11 08:02:50;;;;;;;6.03;3.70;;;;;;;;;;5010419;28;20204;-62
2021/10/11 08:05:17;;;;;;;4.83;3.17;;;;;;;;;;5010658;28;20210;-62
2021/10/11 08:07:46;;;;;;;6.47;3.63;;;;;;;;;;5010387;28;20201;-62
2021/10/11 08:10:13;;;;;;;4.87;3.37;;;;;;;;;;5010544;28;20760;-62
2021/10/11 08:12:39;;;;;;;6.30;3.20;;;;;;;;;;5027141;28;20656;-62
2021/10/11 08:15:09;;;;;;;6.97;3.43;;;;;;;;;;5010636;28;20178;-62
2021/10/11 08:17:36;;;;;;;6.13;3.23;;;;;;;;;;5010467;28;20184;-62
2021/10/11 08:20:14;;;;;;;5.27;2.90;;;;;;;;;;5028581;28;20189;-62
2021/10/11 08:22:44;;;;;;;7.47;2.87;;;;;;;;;;5008153;28;20205;-61
2021/10/11 08:25:16;;;;;;;5.47;3.03;;;;;;;;;;5010403;28;20204;-62
2021/10/11 08:27:42;;;;;;;8.60;3.13;;;;;;;;;;5027218;28;20252;-62
2021/10/11 08:30:08;;;;;;;6.00;2.80;;;;;;;;;;5025096;28;20223;-62
2021/10/11 08:32:37;;;;;;;6.17;2.37;;;;;;;;;;5027798;28;20644;-62
2021/10/11 08:35:03;;;;;;;3.30;2.47;;;;;;;;;;5010448;28;20308;-62
2021/10/11 08:37:30;;;;;;;9.47;3.73;;;;;;;;;;5010253;28;20698;-62
2021/10/11 08:39:56;;;;;;;4.50;2.50;;;;;;;;;;5010483;28;20586;-62
2021/10/11 08:42:22;;;;;;;11.13;3.13;;;;;;;;;;5009130;28;20648;-62
2021/10/11 08:44:51;;;;;;;5.27;2.83;;;;;;;;;;5009951;28;20194;-62
2021/10/11 08:47:23;;;;;;;5.60;2.90;;;;;;;;;;4994096;28;20200;-62
2021/10/11 08:49:51;;;;;;;9.17;3.70;;;;;;;;;;5010298;28;20719;-62
2021/10/11 08:52:21;;;;;;;4.43;2.80;;;;;;;;;;5010015;28;20189;-62
2021/10/11 08:54:51;;;;;;;6.53;2.70;;;;;;;;;;5011695;28;20257;-62
2021/10/11 08:57:24;;;;;;;4.40;2.67;;;;;;;;;;5012156;28;20276;-62
2021/10/11 08:59:51;;;;;;;8.43;4.33;;;;;;;;;;5013277;28;20193;-62
2021/10/11 09:02:21;;;;;;;8.13;2.47;;;;;;;;;;5030833;28;20174;-62
2021/10/11 09:04:53;;;;;;;5.07;2.57;;;;;;;;;;5013023;28;20198;-62
2021/10/11 09:07:23;;;;;;;3.97;2.40;;;;;;;;;;5031246;28;20647;-62
2021/10/11 09:09:50;;;;;;;3.77;3.10;;;;;;;;;;4997062;28;20182;-62
2021/10/11 09:12:43;;;;;;;4.00;2.50;;;;;;;;;;5012055;28;20174;-62
2021/10/11 09:15:11;;;;;;;5.37;2.33;;;;;;;;;;5009218;28;20182;-62
2021/10/11 09:17:42;;;;;;;4.50;2.70;;;;;;;;;;5031046;28;20527;-62
2021/10/11 09:20:19;;;;;;;6.53;2.70;;;;;;;;;;5013372;28;20186;-62
2021/10/11 09:22:47;;;;;;;7.33;2.97;;;;;;;;;;5012896;28;20201;-62
2021/10/11 09:25:14;;;;;;;6.23;1.97;;;;;;;;;;5031204;28;20192;-62
2021/10/11 09:27:56;;;;;;;6.20;2.33;;;;;;;;;;5010938;28;20240;-62
2021/10/11 09:30:53;;;;;;;6.07;2.80;;;;;;;;;;5013235;28;20192;-62
2021/10/11 09:33:29;;;;;;;3.00;2.20;;;;;;;;;;5018377;28;20233;-62
2021/10/11 09:35:56;;;;;;;3.83;2.60;;;;;;;;;;5013144;28;20680;-62
2021/10/11 09:38:28;;;;;;;8.03;3.43;;;;;;;;;;5031021;28;20235;-62
2021/10/11 09:40:57;;;;;;;8.27;2.97;;;;;;;;;;5011979;28;20181;-62
2021/10/11 09:43:24;;;;;;;8.60;2.50;;;;;;;;;;5013172;28;20330;-62
2021/10/11 09:45:57;;;;;;;6.70;2.60;;;;;;;;;;5031114;28;20558;-62
2021/10/11 09:48:32;;;;;;;6.40;2.80;;;;;;;;;;5012959;28;20869;-62
2021/10/11 09:50:58;;;;;;;5.13;2.83;;;;;;;;;;5012784;28;20178;-61
2021/10/11 09:53:25;;;;;;;5.30;2.20;;;;;;;;;;5030257;28;20202;-62
2021/10/11 09:55:53;;;;;;;8.57;2.50;;;;;;;;;;5011940;28;20170;-61
2021/10/11 09:58:20;;;;;;;5.87;2.50;;;;;;;;;;4996746;28;20866;-61
2021/10/11 10:00:46;;;;;;;9.43;2.33;;;;;;;;;;5012843;28;20269;-62
2021/10/11 10:03:22;;;;;;;7.03;2.57;;;;;;;;;;5012382;28;20194;-61
2021/10/11 10:05:50;;;;;;;6.30;2.53;;;;;;;;;;5011713;28;20256;-61
2021/10/11 10:08:29;;;;;;;7.03;2.77;;;;;;;;;;5012509;28;20546;-62
2021/10/11 10:11:01;;;;;;;5.50;2.80;;;;;;;;;;5029899;28;20160;-61
2021/10/11 10:13:29;;;;;;;8.63;2.87;;;;;;;;;;5012285;28;20182;-61
2021/10/11 10:16:07;;;;;;;6.03;2.23;;;;;;;;;;5012284;28;20189;-61
2021/10/11 10:18:38;;;;;;;3.77;2.70;;;;;;;;;;5012543;28;20535;-61
2021/10/11 10:21:04;;;;;;;9.30;3.03;;;;;;;;;;5012311;28;20696;-62
2021/10/11 10:23:40;;;;;;;7.30;2.40;;;;;;;;;;5011866;28;20208;-62
2021/10/11 10:26:11;;;;;;;4.53;2.20;;;;;;;;;;5010698;28;20256;-61
2021/10/11 10:28:50;;;;;;;8.57;2.80;;;;;;;;;;5029331;28;20170;-61
2021/10/11 10:31:34;;;;;;;6.50;2.23;;;;;;;;;;5007870;28;20333;-61
2021/10/11 10:34:19;;;;;;;8.27;3.00;;;;;;;;;;5024054;28;20259;-61
2021/10/11 10:36:46;;;;;;;5.97;2.10;;;;;;;;;;5010725;28;20264;-61
2021/10/11 10:39:17;;;;;;;6.50;2.50;;;;;;;;;;5028884;28;20200;-62
2021/10/11 10:41:56;;;;;;;4.17;2.67;;;;;;;;;;5009717;28;20184;-65
2021/10/11 10:44:26;;;;;;;11.90;2.93;;;;;;;;;;5010905;28;20233;-67
2021/10/11 10:46:56;;;;;;;7.10;3.10;;;;;;;;;;5010606;28;20170;-61
2021/10/11 10:49:29;;;;;;;7.00;3.00;;;;;;;;;;5010966;28;20667;-61
2021/10/11 10:51:55;;;;;;;9.30;3.23;;;;;;;;;;5028443;28;20243;-61
2021/10/11 10:54:32;;;;;;;12.80;3.47;;;;;;;;;;5010487;28;20225;-61
2021/10/11 10:56:58;;;;;;;7.53;2.60;;;;;;;;;;5009567;28;20243;-61
2021/10/11 10:59:25;;;;;;;7.60;3.27;;;;;;;;;;5010660;28;20285;-61
2021/10/11 11:02:02;;;;;;;9.97;3.30;;;;;;;;;;5010637;28;20257;-61
2021/10/11 11:04:28;;;;;;;8.90;3.10;;;;;;;;;;5028437;28;20284;-61
2021/10/11 11:06:59;;;;;;;7.37;3.03;;;;;;;;;;5010854;28;20264;-61
2021/10/11 11:09:25;;;;;;;10.57;3.13;;;;;;;;;;5010664;28;20192;-61
2021/10/11 11:11:52;;;;;;;6.73;2.53;;;;;;;;;;5027384;28;20166;-61
2021/10/11 11:14:18;;;;;;;6.67;3.17;;;;;;;;;;5010617;28;20208;-61
2021/10/11 11:16:51;;;;;;;9.00;2.50;;;;;;;;;;5028017;28;20178;-61
2021/10/11 11:19:20;;;;;;;7.70;2.63;;;;;;;;;;5010281;28;20181;-61
2021/10/11 11:21:55;;;;;;;4.30;2.30;;;;;;;;;;5028053;28;20190;-61
2021/10/11 11:24:24;;;;;;;6.20;2.33;;;;;;;;;;5028024;28;20728;-61
2021/10/11 11:26:50;;;;;;;4.80;2.77;;;;;;;;;;5007646;28;20197;-61
2021/10/11 11:29:16;;;;;;;7.53;2.53;;;;;;;;;;5027894;28;20186;-61
2021/10/11 11:31:52;;;;;;;7.47;2.80;;;;;;;;;;5028057;28;20165;-61
2021/10/11 11:34:18;;;;;;;7.07;2.37;;;;;;;;;;5027814;28;20200;-60
2021/10/11 11:36:54;;;;;;;6.10;2.57;;;;;;;;;;5009833;28;20194;-61
2021/10/11 11:39:21;;;;;;;6.00;2.23;;;;;;;;;;5027864;28;20185;-61
2021/10/11 11:41:54;;;;;;;6.83;2.40;;;;;;;;;;5027023;28;20651;-60
2021/10/11 11:44:27;;;;;;;5.17;1.90;;;;;;;;;;5027895;28;20686;-60
2021/10/11 11:47:19;;;;;;;3.53;1.87;;;;;;;;;;5009936;28;20244;-61
2021/10/11 11:49:45;;;;;;;8.07;2.37;;;;;;;;;;4987819;28;20597;-61
2021/10/11 11:52:13;;;;;;;5.70;1.73;;;;;;;;;;4990096;28;20191;-60
2021/10/11 11:54:41;;;;;;;4.73;2.10;;;;;;;;;;5027882;28;20575;-60
2021/10/11 11:57:07;;;;;;;6.13;2.17;;;;;;;;;;5026968;28;20676;-60
2021/10/11 11:59:34;;;;;;;5.37;2.87;;;;;;;;;;5027977;28;20196;-60
2021/10/11 12:02:03;;;;;;;7.37;2.37;;;;;;;;;;5010007;28;20993;-61
2021/10/11 12:04:30;;;;;;;4.30;2.10;;;;;;;;;;5009945;28;20201;-60
2021/10/11 12:07:02;;;;;;;2.87;1.97;;;;;;;;;;5027005;28;20557;-60
2021/10/11 12:09:28;;;;;;;5.10;2.80;;;;;;;;;;5027621;28;20174;-60
2021/10/11 12:12:02;;;;;;;9.40;1.90;;;;;;;;;;5008272;28;20492;-60
2021/10/11 12:14:28;;;;;;;2.87;1.90;;;;;;;;;;5009637;28;20201;-60
2021/10/11 12:17:01;;;;;;;3.20;1.80;;;;;;;;;;5009629;28;20257;-60
2021/10/11 12:19:36;;;;;;;6.87;2.00;;;;;;;;;;5009498;28;20320;-62
2021/10/11 12:22:11;;;;;;;4.00;1.73;;;;;;;;;;5009575;28;20204;-62
2021/10/11 12:24:54;;;;;;;6.23;2.40;;;;;;;;;;5026876;28;20201;-62
2021/10/11 12:27:41;;;;;;;5.63;1.90;;;;;;;;;;5008299;28;20865;-62
2021/10/11 12:30:09;;;;;;;3.53;1.70;;;;;;;;;;5012167;28;20170;-65
2021/10/11 12:32:36;;;;;;;3.27;1.90;;;;;;;;;;5012773;28;20209;-62
2021/10/11 12:35:08;;;;;;;4.70;1.90;;;;;;;;;;5012899;28;20185;-63
2021/10/11 12:37:46;;;;;;;9.57;1.93;;;;;;;;;;5012733;28;20177;-64
2021/10/11 12:40:23;;;;;;;6.07;2.73;;;;;;;;;;5013016;28;20201;-63
2021/10/11 12:42:55;;;;;;;7.20;2.10;;;;;;;;;;5011756;28;20660;-64
2021/10/11 12:45:24;;;;;;;3.87;1.93;;;;;;;;;;5012635;28;20210;-64
2021/10/11 12:47:50;;;;;;;5.03;1.90;;;;;;;;;;5012885;28;20186;-63
2021/10/11 12:50:25;;;;;;;6.37;1.93;;;;;;;;;;5030559;28;20170;-63
2021/10/11 12:52:51;;;;;;;5.70;1.80;;;;;;;;;;5011816;28;20332;-63
2021/10/11 12:55:19;;;;;;;4.77;1.80;;;;;;;;;;5030572;28;20372;-63
2021/10/11 12:57:51;;;;;;;5.73;2.20;;;;;;;;;;5029323;28;20251;-63
2021/10/11 13:00:23;;;;;;;5.33;2.13;;;;;;;;;;5013646;28;20240;-63
2021/10/11 13:02:50;;;;;;;4.33;1.90;;;;;;;;;;5011860;28;20198;-62
2021/10/11 13:05:16;;;;;;;3.93;1.80;;;;;;;;;;5012602;28;20656;-62
2021/10/11 13:07:43;;;;;;;5.10;1.80;;;;;;;;;;5012288;28;20265;-62
2021/10/11 13:10:10;;;;;;;7.57;2.77;;;;;;;;;;5012734;28;20178;-62
2021/10/11 13:12:36;;;;;;;4.23;2.10;;;;;;;;;;5028804;28;20174;-62
2021/10/11 13:15:08;;;;;;;3.33;1.40;;;;;;;;;;4988069;28;20653;-62
2021/10/11 13:17:37;;;;;;;5.20;3.60;;;;;;;;;;4988035;28;20234;-62
2021/10/11 13:20:05;;;;;;;4.73;2.13;;;;;;;;;;4971948;28;20334;-62
2021/10/11 13:22:35;;;;;;;5.27;1.90;;;;;;;;;;4971741;28;20186;-63
2021/10/11 13:25:05;;;;;;;4.93;1.90;;;;;;;;;;4971882;28;20214;-62
2021/10/11 13:27:34;;;;;;;4.47;1.70;;;;;;;;;;4970183;28;20700;-62
2021/10/11 13:36:16;;;;;;;6.27;2.10;;;;;;;;;;4988317;28;20258;-62
2021/10/11 14:28:21;;;;;;;4.37;1.60;;;;;;;;;;5029993;28;20186;-62
2021/10/11 14:33:58;;;;;;;5.73;1.77;;;;;;;;;;5029931;28;20202;-61
2021/10/11 15:59:43;;;;;;;2.90;1.87;;;;;;;;;;5027761;28;20178;-63
2021/10/11 16:05:19;;;;;;;4.00;2.33;;;;;;;;;;4931299;29;20260;-63
2021/10/11 16:08:00;;;;;;;4.30;2.00;;;;;;;;;;4934106;29;20679;-63
2021/10/11 16:10:26;;;;;;;5.73;2.20;;;;;;;;;;4987238;28;20647;-63
2021/10/11 16:12:52;;;;;;;5.73;1.57;;;;;;;;;;5015321;28;20656;-63
2021/10/11 16:15:19;;;;;;;2.90;1.80;;;;;;;;;;5030063;28;20170;-62
2021/10/11 16:17:45;;;;;;;3.97;2.23;;;;;;;;;;5029629;28;20511;-64
2021/10/11 16:20:24;;;;;;;3.03;1.90;;;;;;;;;;5030547;28;20290;-63
2021/10/11 16:22:58;;;;;;;5.53;2.50;;;;;;;;;;5011690;28;20620;-63
2021/10/11 16:25:24;;;;;;;6.50;2.13;;;;;;;;;;5029910;28;20295;-64
2021/10/11 16:28:06;;;;;;;5.33;2.43;;;;;;;;;;5010473;28;20243;-63
2021/10/11 16:30:32;;;;;;;2.17;1.63;;;;;;;;;;5029867;28;20595;-63
2021/10/11 16:33:02;;;;;;;4.63;1.97;;;;;;;;;;5029494;28;20173;-63
2021/10/11 16:35:28;;;;;;;5.83;2.03;;;;;;;;;;5012178;28;20189;-63
2021/10/11 16:38:00;;;;;;;3.77;2.00;;;;;;;;;;5029146;28;20182;-63
2021/10/11 16:40:27;;;;;;;2.27;1.80;;;;;;;;;;5012232;28;20174;-63
2021/10/11 16:42:53;;;;;;;3.70;2.17;;;;;;;;;;5029548;28;20182;-64
2021/10/11 16:45:25;;;;;;;6.13;1.93;;;;;;;;;;5013362;28;20194;-63
2021/10/11 16:47:54;;;;;;;4.43;2.00;;;;;;;;;;5012901;28;20180;-64
2021/10/11 16:50:23;;;;;;;2.60;1.80;;;;;;;;;;5031640;28;20181;-64
2021/10/11 16:52:52;;;;;;;3.63;1.90;;;;;;;;;;5012639;28;20224;-64
2021/10/11 16:55:24;;;;;;;5.03;1.70;;;;;;;;;;5013133;28;20267;-64
2021/10/11 17:00:54;;;;;;;3.80;2.10;;;;;;;;;;5031266;28;20633;-63
2021/10/11 17:03:26;;;;;;;2.43;1.53;;;;;;;;;;5012481;28;20822;-64
2021/10/11 17:05:52;;;;;;;3.77;1.80;;;;;;;;;;5011447;28;20186;-63
2021/10/11 17:08:19;;;;;;;6.80;2.23;;;;;;;;;;5030664;28;20675;-64